Terminal Aerodrome Forecast
Issued by NWS Billings, MT

Home | Current Version | Previous Version | Text Only | Print | Product List | Glossary On
Versions: 1 2 3 4 5 6 7 8 9 10 11 12 13 14 15 16 17 18 19 20 21 22 23 24 25 26 27 28 29 30 31 32 33 34 35 36 37 38 39 40 41 42 43 44 45
000
FTUS45 KBYZ 280527
TAFSHR
TAF
KSHR 280527Z 2806/2906 31008KT 5SM -SNRA BR OVC009
     FM280900 32007KT 1 1/2SM -SN BR OVC006
     FM281600 34006KT 6SM -SHRASN SCT008 OVC012
     FM282000 VRB05KT P6SM -SHRA SCT015 OVC025
     FM290000 VRB04KT P6SM VCSH BKN035=

USA.gov is the U.S. government's official web portal to all federal, state and local government web resources and services.